Time;durP1;ratioP1;P1;durP2;ratioP2;P2;SDS_P1;SDS_P2;PMS_P1;PMS_P2;Temp;Humidity;BMP_temperature;BMP_pressure;BME280_temperature;BME280_humidity;BME280_pressure;Samples;Min_cycle;Max_cycle;Signal;HPM_P1;HPM_P2
2024/02/05 00:02:01;;;;;;;0.47;0.40;;;;;;;7.97;100.00;98942.72;5075973;28;20227;-81
2024/02/05 00:04:27;;;;;;;0.37;0.37;;;;;;;7.89;100.00;98943.06;5075528;28;20232;-81
2024/02/05 00:06:54;;;;;;;0.40;0.40;;;;;;;7.89;100.00;98945.72;5074899;28;20593;-81
2024/02/05 00:09:20;;;;;;;0.70;0.50;;;;;;;7.89;100.00;98936.97;5075663;28;20217;-82
2024/02/05 00:11:47;;;;;;;0.33;0.33;;;;;;;7.94;100.00;98942.84;5075434;28;20230;-81
2024/02/05 00:14:14;;;;;;;0.20;0.20;;;;;;;7.87;100.00;98946.69;5075490;28;20219;-81
2024/02/05 00:16:40;;;;;;;0.33;0.33;;;;;;;7.81;100.00;98944.34;5075442;28;20274;-81
2024/02/05 00:19:08;;;;;;;0.40;0.40;;;;;;;7.78;100.00;98937.44;5075462;28;20226;-81
2024/02/05 00:21:34;;;;;;;0.30;0.30;;;;;;;7.75;100.00;98939.34;5074049;28;20713;-81
2024/02/05 00:24:01;;;;;;;0.40;0.40;;;;;;;7.76;100.00;98915.63;5075612;28;20216;-82
2024/02/05 00:26:27;;;;;;;1.53;0.50;;;;;;;7.79;100.00;98925.16;5075401;28;20674;-84
2024/02/05 00:28:54;;;;;;;0.30;0.30;;;;;;;7.74;100.00;98942.91;5074930;28;20310;-82
2024/02/05 00:31:20;;;;;;;0.40;0.40;;;;;;;7.74;100.00;98940.28;5074577;28;20240;-84
2024/02/05 00:33:47;;;;;;;0.30;0.30;;;;;;;7.71;100.00;98937.81;5074881;28;20555;-82
2024/02/05 00:36:15;;;;;;;0.50;0.50;;;;;;;7.75;100.00;98931.47;5074987;28;20215;-82
2024/02/05 00:38:41;;;;;;;0.50;0.40;;;;;;;7.66;100.00;98919.56;5074330;28;20208;-82
2024/02/05 00:41:08;;;;;;;1.07;0.40;;;;;;;7.69;100.00;98916.81;5074762;28;20210;-82
2024/02/05 00:43:35;;;;;;;0.30;0.30;;;;;;;7.73;100.00;98931.53;5074929;28;20582;-82
2024/02/05 00:46:01;;;;;;;3.70;0.40;;;;;;;7.70;100.00;98934.31;5074753;28;20211;-82
2024/02/05 00:48:29;;;;;;;1.07;0.67;;;;;;;7.67;100.00;98942.34;5074379;28;20215;-82
2024/02/05 00:50:55;;;;;;;0.47;0.40;;;;;;;7.70;100.00;98947.47;5074522;28;20227;-82
2024/02/05 00:53:23;;;;;;;1.30;0.47;;;;;;;7.74;100.00;98961.34;5074604;28;20214;-82
2024/02/05 00:55:49;;;;;;;0.70;0.60;;;;;;;7.77;100.00;98954.16;5074627;28;20238;-82
2024/02/05 00:58:16;;;;;;;0.80;0.50;;;;;;;7.81;100.00;98966.25;5074332;28;20217;-82
2024/02/05 01:00:42;;;;;;;1.77;0.70;;;;;;;7.80;100.00;98971.59;5074402;28;20208;-82
2024/02/05 01:03:09;;;;;;;1.40;0.57;;;;;;;7.79;100.00;98962.00;5074105;28;20430;-82
2024/02/05 01:05:35;;;;;;;0.43;0.43;;;;;;;7.73;100.00;98967.53;5074446;28;20214;-82
2024/02/05 01:08:02;;;;;;;0.43;0.43;;;;;;;7.76;100.00;98967.38;5074226;28;20217;-82
2024/02/05 01:10:30;;;;;;;0.40;0.40;;;;;;;7.77;100.00;98964.69;5075070;28;20820;-82
2024/02/05 01:12:56;;;;;;;0.40;0.40;;;;;;;7.74;100.00;98964.84;5074803;28;20233;-82
2024/02/05 01:15:23;;;;;;;0.60;0.60;;;;;;;7.73;100.00;98978.06;5074293;28;20205;-82
2024/02/05 01:17:49;;;;;;;0.70;0.70;;;;;;;7.72;100.00;98982.44;5073835;28;20211;-82
2024/02/05 01:20:16;;;;;;;1.10;0.70;;;;;;;7.74;100.00;98990.28;5074179;28;20213;-82
2024/02/05 01:22:43;;;;;;;0.50;0.50;;;;;;;7.73;100.00;98978.88;5074469;28;20234;-82
2024/02/05 01:25:10;;;;;;;0.70;0.70;;;;;;;7.73;100.00;98973.63;5075149;28;20253;-80
2024/02/05 01:27:38;;;;;;;0.70;0.57;;;;;;;7.69;100.00;98987.00;5075333;28;20583;-82
2024/02/05 01:30:05;;;;;;;0.60;0.60;;;;;;;7.63;100.00;98987.25;5074691;28;20236;-82
2024/02/05 01:32:32;;;;;;;0.50;0.50;;;;;;;7.63;100.00;98987.25;5074453;28;20244;-82
2024/02/05 01:34:58;;;;;;;0.87;0.63;;;;;;;7.63;100.00;98997.78;5074876;28;20670;-82
2024/02/05 01:37:25;;;;;;;0.73;0.60;;;;;;;7.63;100.00;98992.53;5074886;28;20218;-82
2024/02/05 01:39:51;;;;;;;0.63;0.63;;;;;;;7.61;100.00;99010.16;5075228;28;20222;-82
2024/02/05 01:42:18;;;;;;;0.60;0.60;;;;;;;7.62;100.00;99006.59;5075048;28;20224;-82
2024/02/05 01:44:46;;;;;;;0.73;0.60;;;;;;;7.59;100.00;99009.38;5074502;28;20203;-82
2024/02/05 01:47:14;;;;;;;1.03;0.67;;;;;;;7.56;100.00;99017.38;5074778;28;20594;-82
2024/02/05 01:49:42;;;;;;;0.60;0.60;;;;;;;7.50;100.00;99015.03;5074749;28;20207;-82
2024/02/05 01:52:12;;;;;;;0.50;0.50;;;;;;;7.40;100.00;99004.03;5074954;28;20259;-82
2024/02/05 01:54:41;;;;;;;1.37;0.70;;;;;;;7.35;100.00;99013.91;5075216;28;20220;-82
2024/02/05 01:57:10;;;;;;;1.33;0.90;;;;;;;7.30;100.00;99010.59;5074569;28;20568;-82
2024/02/05 01:59:38;;;;;;;1.50;0.87;;;;;;;7.32;100.00;99008.78;5074828;28;20207;-82
2024/02/05 02:02:07;;;;;;;2.20;0.90;;;;;;;7.32;100.00;99003.53;5075954;28;20227;-82
2024/02/05 02:04:34;;;;;;;0.90;0.67;;;;;;;7.32;100.00;98991.31;5075718;28;20211;-82
2024/02/05 02:07:03;;;;;;;0.73;0.73;;;;;;;7.35;100.00;98992.03;5075553;28;20211;-81
2024/02/05 02:09:30;;;;;;;0.73;0.73;;;;;;;7.36;100.00;98993.72;5075603;28;20662;-81
2024/02/05 02:11:57;;;;;;;0.50;0.50;;;;;;;7.40;100.00;98977.75;5075830;28;20246;-82
2024/02/05 02:14:23;;;;;;;1.67;0.60;;;;;;;7.43;100.00;98972.38;5074519;28;20207;-81
2024/02/05 02:16:52;;;;;;;0.87;0.60;;;;;;;7.48;100.00;98977.41;5074560;28;20222;-81
2024/02/05 02:19:33;;;;;;;0.90;0.60;;;;;;;7.49;100.00;98974.75;5074828;28;20663;-81
2024/02/05 02:22:05;;;;;;;0.70;0.70;;;;;;;7.54;100.00;98977.16;5074988;28;20238;-81
2024/02/05 02:24:35;;;;;;;0.50;0.50;;;;;;;7.54;100.00;98975.38;5074810;28;20212;-81
2024/02/05 02:27:01;;;;;;;0.70;0.60;;;;;;;7.56;100.00;98985.81;5075180;28;20207;-83
2024/02/05 02:29:28;;;;;;;0.87;0.60;;;;;;;7.56;100.00;98977.94;5075460;28;20802;-83
2024/02/05 02:32:08;;;;;;;1.27;0.70;;;;;;;7.56;100.00;98977.94;5075362;28;20234;-82
2024/02/05 02:34:39;;;;;;;2.00;0.57;;;;;;;7.61;100.00;98986.47;5075549;28;20207;-82
2024/02/05 02:37:12;;;;;;;0.60;0.60;;;;;;;7.60;100.00;98988.25;5075312;28;20215;-82
2024/02/05 02:39:48;;;;;;;1.20;0.70;;;;;;;7.62;100.00;98985.56;5075650;28;20299;-82
2024/02/05 02:42:17;;;;;;;0.43;0.43;;;;;;;7.65;100.00;98991.53;5075615;28;20296;-82
2024/02/05 02:44:45;;;;;;;0.70;0.50;;;;;;;7.69;100.00;98989.63;5078309;28;20207;-82
2024/02/05 02:47:11;;;;;;;0.50;0.50;;;;;;;7.72;100.00;98995.59;5079590;28;20207;-82
2024/02/05 02:49:38;;;;;;;0.50;0.50;;;;;;;7.72;100.00;98995.59;5082954;28;20580;-82
2024/02/05 02:52:04;;;;;;;0.50;0.50;;;;;;;7.74;100.00;98998.16;5081055;28;20568;-82
2024/02/05 02:54:31;;;;;;;1.50;0.83;;;;;;;7.74;100.00;98995.53;5077083;28;20681;-82
2024/02/05 02:56:59;;;;;;;0.50;0.40;;;;;;;7.75;100.00;98991.97;5075890;28;20215;-82
2024/02/05 02:59:26;;;;;;;1.23;0.40;;;;;;;7.77;100.00;98985.72;5077379;28;20208;-82
2024/02/05 03:01:52;;;;;;;0.63;0.50;;;;;;;7.80;100.00;98979.47;5077182;28;20733;-82
2024/02/05 03:04:19;;;;;;;0.87;0.40;;;;;;;7.83;100.00;98985.47;5077199;28;20234;-82
2024/02/05 03:06:46;;;;;;;1.27;0.40;;;;;;;7.84;100.00;98986.31;5076998;28;20262;-82
2024/02/05 03:09:13;;;;;;;0.53;0.47;;;;;;;7.88;100.00;98987.88;5077553;28;20234;-82
2024/02/05 03:11:39;;;;;;;1.17;0.40;;;;;;;7.86;100.00;98981.84;5076980;28;20243;-82
2024/02/05 03:14:07;;;;;;;0.40;0.40;;;;;;;7.87;100.00;98991.44;5076626;28;20211;-82
2024/02/05 03:16:33;;;;;;;0.37;0.33;;;;;;;7.88;100.00;98982.63;5077259;28;20219;-82
2024/02/05 03:19:00;;;;;;;1.20;0.40;;;;;;;7.93;100.00;98985.91;5076566;28;20705;-82
2024/02/05 03:21:26;;;;;;;0.33;0.33;;;;;;;7.96;100.00;98980.50;5077364;28;20223;-82
2024/02/05 03:23:53;;;;;;;1.23;0.50;;;;;;;8.01;100.00;98981.13;5077173;28;20207;-82
2024/02/05 03:26:19;;;;;;;0.37;0.37;;;;;;;7.99;100.00;98985.63;5076544;28;20691;-82
2024/02/05 03:28:46;;;;;;;0.50;0.50;;;;;;;8.00;100.00;98987.31;5076304;28;20211;-82
2024/02/05 03:31:14;;;;;;;0.30;0.30;;;;;;;7.99;100.00;98986.50;5077127;28;20247;-82
2024/02/05 03:33:40;;;;;;;1.20;0.50;;;;;;;8.00;100.00;98989.97;5077201;28;20211;-82
2024/02/05 03:36:07;;;;;;;0.57;0.30;;;;;;;7.97;100.00;99004.13;5076959;28;20649;-82
2024/02/05 03:38:33;;;;;;;0.30;0.30;;;;;;;7.99;100.00;98997.03;5076208;28;20207;-82
2024/02/05 03:41:00;;;;;;;0.40;0.40;;;;;;;8.03;100.00;99010.91;5076572;28;20204;-82
2024/02/05 03:43:26;;;;;;;0.30;0.30;;;;;;;8.11;100.00;99016.66;5077096;28;20211;-82
2024/02/05 03:45:53;;;;;;;1.07;0.40;;;;;;;8.06;100.00;99016.88;5077267;28;20695;-82
2024/02/05 03:48:21;;;;;;;0.50;0.40;;;;;;;8.06;100.00;99023.91;5076485;28;20206;-82
2024/02/05 03:50:48;;;;;;;1.33;0.60;;;;;;;8.08;100.00;99029.97;5077085;28;20228;-82
2024/02/05 03:53:14;;;;;;;0.33;0.33;;;;;;;8.10;100.00;99028.13;5077162;28;20227;-82
2024/02/05 03:55:41;;;;;;;0.40;0.40;;;;;;;8.08;100.00;99017.66;5075110;28;20690;-82
2024/02/05 03:58:07;;;;;;;0.87;0.50;;;;;;;8.06;100.00;99021.28;5076097;28;20212;-82
2024/02/05 04:00:34;;;;;;;0.30;0.30;;;;;;;8.03;100.00;99014.38;5076744;28;20699;-82
2024/02/05 04:03:00;;;;;;;0.40;0.40;;;;;;;8.07;100.00;99004.53;5076932;28;20231;-82
2024/02/05 04:05:31;;;;;;;0.30;0.30;;;;;;;8.02;100.00;99002.13;5076212;28;20215;-82
2024/02/05 04:07:58;;;;;;;2.50;0.40;;;;;;;8.07;100.00;99004.53;5075574;28;20436;-82
2024/02/05 04:10:24;;;;;;;1.03;0.30;;;;;;;8.05;100.00;99016.94;5076138;28;20677;-82
2024/02/05 04:12:51;;;;;;;1.63;0.40;;;;;;;8.02;100.00;99025.00;5076205;28;20550;-82
2024/02/05 04:15:17;;;;;;;1.70;0.40;;;;;;;8.00;100.00;99014.53;5076522;28;20219;-82
2024/02/05 04:17:44;;;;;;;0.30;0.30;;;;;;;8.01;100.00;99020.63;5075964;28;20208;-82
2024/02/05 04:20:11;;;;;;;0.40;0.40;;;;;;;8.01;100.00;99025.88;5076507;28;20214;-82
2024/02/05 04:22:40;;;;;;;0.50;0.37;;;;;;;8.02;100.00;99011.81;5076046;28;20231;-82
2024/02/05 04:25:08;;;;;;;0.73;0.40;;;;;;;8.00;100.00;99016.28;5076109;28;20210;-82
2024/02/05 04:27:34;;;;;;;0.30;0.23;;;;;;;8.01;100.00;99029.38;5076019;28;20206;-82
2024/02/05 04:30:02;;;;;;;0.30;0.30;;;;;;;8.01;100.00;99025.88;5076340;28;20227;-82
2024/02/05 04:32:30;;;;;;;0.90;0.40;;;;;;;8.01;100.00;99020.63;5075989;28;20339;-83
2024/02/05 04:34:57;;;;;;;0.60;0.37;;;;;;;8.06;100.00;99016.00;5076205;28;20234;-82
2024/02/05 04:37:23;;;;;;;0.20;0.20;;;;;;;7.98;100.00;99021.63;5075981;28;20622;-83
2024/02/05 04:39:51;;;;;;;0.30;0.30;;;;;;;8.02;100.00;99027.63;5076234;28;20217;-83
2024/02/05 04:42:17;;;;;;;1.50;0.40;;;;;;;8.02;100.00;99035.53;5076148;28;20223;-82
2024/02/05 04:44:44;;;;;;;1.30;0.40;;;;;;;8.05;100.00;99027.47;5075809;28;20213;-83
2024/02/05 04:47:10;;;;;;;0.73;0.40;;;;;;;8.06;100.00;99024.78;5075857;28;20690;-82
2024/02/05 04:49:37;;;;;;;0.70;0.40;;;;;;;8.06;100.00;99026.53;5076259;28;20212;-83
2024/02/05 04:52:03;;;;;;;0.30;0.30;;;;;;;8.06;100.00;99024.78;5076158;28;20314;-83
2024/02/05 04:54:30;;;;;;;0.47;0.40;;;;;;;8.06;100.00;99031.81;5076245;28;20222;-83
2024/02/05 04:56:58;;;;;;;0.53;0.40;;;;;;;8.10;100.00;99022.84;5075617;28;20208;-83
2024/02/05 04:59:24;;;;;;;0.30;0.30;;;;;;;8.11;100.00;99021.94;5075814;28;20211;-82
2024/02/05 05:01:53;;;;;;;0.80;0.23;;;;;;;8.13;100.00;99030.59;5075562;28;20250;-83
2024/02/05 05:04:19;;;;;;;0.53;0.40;;;;;;;8.08;100.00;99032.59;5075472;28;20213;-83
2024/02/05 05:06:46;;;;;;;0.20;0.20;;;;;;;8.05;100.00;99038.88;5074020;28;20676;-82
2024/02/05 05:09:12;;;;;;;0.30;0.30;;;;;;;8.06;100.00;99034.44;5075811;28;20614;-82
2024/02/05 05:11:39;;;;;;;0.40;0.37;;;;;;;8.04;100.00;99046.81;5075302;28;20239;-82
2024/02/05 05:14:07;;;;;;;1.10;0.30;;;;;;;8.06;100.00;99044.97;5075450;28;20212;-83
2024/02/05 05:16:33;;;;;;;0.10;0.10;;;;;;;8.10;100.00;99041.28;5074736;28;20679;-82
2024/02/05 05:19:01;;;;;;;0.30;0.30;;;;;;;8.07;100.00;99041.41;5074187;28;20232;-82
2024/02/05 05:21:27;;;;;;;1.30;0.30;;;;;;;8.03;100.00;99042.50;5074713;28;20262;-82
2024/02/05 05:23:54;;;;;;;1.30;0.40;;;;;;;8.09;100.00;99043.03;5074821;28;20492;-82
2024/02/05 05:26:21;;;;;;;1.17;0.40;;;;;;;8.13;100.00;99038.50;5074518;28;20310;-82
2024/02/05 05:28:48;;;;;;;0.30;0.20;;;;;;;8.15;100.00;99041.94;5074237;28;20668;-82
2024/02/05 05:31:16;;;;;;;0.30;0.30;;;;;;;8.21;100.00;99033.78;5074360;28;20241;-83
2024/02/05 05:33:46;;;;;;;0.77;0.20;;;;;;;8.23;100.00;99039.84;5074346;28;20267;-83
2024/02/05 05:36:13;;;;;;;0.73;0.30;;;;;;;8.18;100.00;99039.16;5074237;28;20213;-83
2024/02/05 05:38:40;;;;;;;0.23;0.23;;;;;;;8.13;100.00;99041.13;5074581;28;20232;-83
2024/02/05 05:41:06;;;;;;;1.77;0.37;;;;;;;8.12;100.00;99042.06;5074454;28;20689;-83
2024/02/05 05:43:33;;;;;;;0.47;0.30;;;;;;;8.15;100.00;99028.78;5073938;28;20699;-83
2024/02/05 05:45:59;;;;;;;0.30;0.30;;;;;;;8.15;100.00;99040.13;5074707;28;20210;-82
2024/02/05 05:48:27;;;;;;;0.40;0.40;;;;;;;8.22;100.00;99035.50;5073666;28;20213;-83
2024/02/05 05:50:54;;;;;;;1.53;0.50;;;;;;;8.18;100.00;99039.16;5074200;28;20213;-83
2024/02/05 05:53:20;;;;;;;1.13;0.40;;;;;;;8.24;100.00;99036.28;5074215;28;20210;-82
2024/02/05 05:55:49;;;;;;;0.63;0.30;;;;;;;8.23;100.00;99027.53;5073329;28;20214;-82
2024/02/05 05:58:15;;;;;;;0.40;0.20;;;;;;;8.25;100.00;99022.19;5073638;28;20205;-82
2024/02/05 06:00:42;;;;;;;0.60;0.60;;;;;;;8.25;100.00;99032.72;5073598;28;20208;-83
2024/02/05 06:03:08;;;;;;;0.23;0.23;;;;;;;8.29;100.00;99023.75;5073626;28;20228;-82
2024/02/05 06:05:36;;;;;;;0.23;0.23;;;;;;;8.26;100.00;99021.28;5073688;28;20210;-83
2024/02/05 06:08:03;;;;;;;0.30;0.27;;;;;;;8.31;100.00;99019.25;5073447;28;20707;-82
2024/02/05 06:10:30;;;;;;;0.30;0.30;;;;;;;8.27;100.00;99013.28;5074003;28;20230;-82
2024/02/05 06:12:58;;;;;;;1.13;0.30;;;;;;;8.27;100.00;99012.44;5073917;28;20236;-82
2024/02/05 06:15:24;;;;;;;1.30;0.50;;;;;;;8.27;100.00;99020.34;5073361;28;20209;-82
2024/02/05 06:17:51;;;;;;;0.30;0.30;;;;;;;8.25;100.00;99019.53;5073292;28;20212;-83
2024/02/05 06:20:17;;;;;;;0.30;0.30;;;;;;;8.25;100.00;99014.28;5073667;28;20211;-83
2024/02/05 06:22:45;;;;;;;0.40;0.33;;;;;;;8.24;100.00;99010.81;5074186;28;20699;-83
2024/02/05 06:25:12;;;;;;;0.23;0.23;;;;;;;8.25;100.00;99015.13;5073958;28;20217;-83
2024/02/05 06:27:39;;;;;;;0.70;0.50;;;;;;;8.30;100.00;99007.88;5074695;28;20661;-82
2024/02/05 06:30:07;;;;;;;0.63;0.40;;;;;;;8.31;100.00;99014.00;5034982;28;1103491;-83
2024/02/05 06:32:33;;;;;;;0.67;0.50;;;;;;;8.36;100.00;99009.38;5075388;28;20593;-82
2024/02/05 06:35:01;;;;;;;0.30;0.30;;;;;;;8.39;100.00;99006.59;5075983;28;20213;-83
2024/02/05 06:37:27;;;;;;;0.40;0.40;;;;;;;8.38;100.00;99004.91;5075143;28;20694;-83
2024/02/05 06:39:55;;;;;;;0.43;0.30;;;;;;;8.39;100.00;99010.09;5075533;28;20215;-83
2024/02/05 06:42:22;;;;;;;0.50;0.30;;;;;;;8.35;100.00;99012.94;5076254;28;20221;-83
2024/02/05 06:44:50;;;;;;;0.57;0.30;;;;;;;8.25;100.00;99019.53;5077868;28;20709;-82
2024/02/05 06:47:17;;;;;;;1.27;0.60;;;;;;;8.25;100.00;99027.44;5077023;28;20212;-82
2024/02/05 06:49:43;;;;;;;0.47;0.47;;;;;;;8.27;100.00;99020.34;5075608;28;20225;-83
2024/02/05 06:52:09;;;;;;;0.50;0.50;;;;;;;8.22;100.00;99024.97;5076820;28;20228;-82
2024/02/05 06:54:36;;;;;;;0.50;0.47;;;;;;;8.15;100.00;99020.88;5077349;28;20555;-83
2024/02/05 06:57:04;;;;;;;0.63;0.50;;;;;;;8.18;100.00;99024.22;5075482;28;20208;-84
2024/02/05 06:59:31;;;;;;;0.40;0.40;;;;;;;8.10;100.00;99036.03;5076150;28;20205;-83
2024/02/05 07:01:57;;;;;;;1.50;0.50;;;;;;;8.01;100.00;99036.41;5075627;28;20225;-83
2024/02/05 07:04:24;;;;;;;0.97;0.40;;;;;;;8.06;100.00;99037.94;5076054;28;20207;-83
2024/02/05 07:06:50;;;;;;;1.20;0.60;;;;;;;8.05;100.00;99040.63;5075794;28;20386;-84
2024/02/05 07:09:17;;;;;;;0.50;0.50;;;;;;;8.04;100.00;99044.19;5075659;28;20209;-83
2024/02/05 07:11:43;;;;;;;1.17;0.50;;;;;;;8.00;100.00;99042.59;5074874;28;20248;-84
2024/02/05 07:14:11;;;;;;;1.13;0.40;;;;;;;8.02;100.00;99040.78;5075099;28;20207;-82
2024/02/05 07:16:38;;;;;;;0.60;0.50;;;;;;;7.98;100.00;99047.97;5075250;28;20201;-82
2024/02/05 07:19:04;;;;;;;0.50;0.40;;;;;;;8.05;100.00;99048.53;5074612;28;20213;-82
2024/02/05 07:21:31;;;;;;;1.13;0.60;;;;;;;8.08;100.00;99043.16;5074834;28;20229;-82
2024/02/05 07:23:57;;;;;;;0.53;0.53;;;;;;;8.04;100.00;99052.09;5074725;28;20671;-82
2024/02/05 07:26:24;;;;;;;0.90;0.53;;;;;;;8.04;100.00;99049.47;5074667;28;20216;-82
2024/02/05 07:28:50;;;;;;;0.70;0.70;;;;;;;8.08;100.00;99053.69;5075077;28;20220;-82
2024/02/05 07:31:18;;;;;;;1.97;0.70;;;;;;;8.08;100.00;99048.41;5077861;28;20592;-82
2024/02/05 07:33:45;;;;;;;2.10;0.70;;;;;;;8.12;100.00;99055.22;5079478;28;20247;-82
2024/02/05 07:36:11;;;;;;;0.77;0.50;;;;;;;8.10;100.00;99062.34;5079120;28;20210;-82
2024/02/05 07:38:39;;;;;;;2.07;0.70;;;;;;;8.14;100.00;99063.94;5079982;28;20210;-81
2024/02/05 07:41:05;;;;;;;0.50;0.50;;;;;;;8.23;100.00;99055.63;5080776;28;20232;-83
2024/02/05 07:43:52;;;;;;;0.80;0.63;;;;;;;8.22;100.00;99060.06;5080323;28;20714;-78
2024/02/05 07:46:20;;;;;;;1.13;0.50;;;;;;;8.21;100.00;99060.13;5077409;28;20205;-83
2024/02/05 07:48:46;;;;;;;0.50;0.50;;;;;;;8.21;100.00;99057.50;5080448;28;20237;-82
2024/02/05 07:51:13;;;;;;;1.27;0.50;;;;;;;8.22;100.00;99060.06;5082188;28;20210;-82
2024/02/05 07:53:39;;;;;;;0.40;0.30;;;;;;;8.25;100.00;99064.31;5080189;28;20240;-82
2024/02/05 07:56:09;;;;;;;0.50;0.50;;;;;;;8.26;100.00;99073.94;5080134;28;20675;-81
2024/02/05 07:58:36;;;;;;;0.80;0.60;;;;;;;8.29;100.00;99071.16;5080158;28;20233;-81
2024/02/05 08:01:02;;;;;;;0.60;0.60;;;;;;;8.29;100.00;99069.41;5080592;28;20217;-81
2024/02/05 08:03:30;;;;;;;0.40;0.40;;;;;;;8.36;100.00;99077.84;5079127;28;20206;-81
2024/02/05 08:05:57;;;;;;;0.67;0.40;;;;;;;8.35;100.00;99069.13;5079763;28;20217;-81
2024/02/05 08:08:23;;;;;;;1.13;0.57;;;;;;;8.39;100.00;99062.75;5079515;28;20206;-82
2024/02/05 08:10:50;;;;;;;0.80;0.50;;;;;;;8.41;100.00;99060.94;5079523;28;20720;-81
2024/02/05 08:13:17;;;;;;;1.53;0.93;;;;;;;8.47;100.00;99058.03;5079565;28;20234;-80
2024/02/05 08:15:43;;;;;;;0.93;0.60;;;;;;;8.48;100.00;99056.22;5078928;28;20222;-81
2024/02/05 08:18:10;;;;;;;0.80;0.60;;;;;;;8.56;100.00;99062.00;5078451;28;20209;-82
2024/02/05 08:20:37;;;;;;;1.53;0.70;;;;;;;8.61;100.00;99049.44;5075670;28;20296;-81
2024/02/05 08:23:04;;;;;;;2.07;0.80;;;;;;;8.67;100.00;99059.72;5077781;28;20228;-83
2024/02/05 08:25:31;;;;;;;1.07;0.77;;;;;;;8.68;100.00;99054.38;5078520;28;20218;-79
2024/02/05 08:27:59;;;;;;;1.30;0.70;;;;;;;8.71;100.00;99048.09;5080858;28;20220;-82
2024/02/05 08:30:26;;;;;;;1.70;0.80;;;;;;;8.76;100.00;99049.59;5078387;28;20213;-82
2024/02/05 08:32:52;;;;;;;1.33;0.60;;;;;;;8.80;100.00;99040.63;5078792;28;20241;-81
2024/02/05 08:35:19;;;;;;;1.53;0.70;;;;;;;8.82;100.00;99038.75;5079902;28;20682;-81
2024/02/05 08:37:47;;;;;;;0.70;0.70;;;;;;;8.77;100.00;99032.88;5077800;28;20227;-83
2024/02/05 08:40:13;;;;;;;0.57;0.43;;;;;;;8.69;100.00;99037.63;5078261;28;20221;-83
2024/02/05 08:42:41;;;;;;;0.63;0.63;;;;;;;8.71;100.00;99035.78;5077450;28;20246;-83
2024/02/05 08:45:08;;;;;;;0.63;0.60;;;;;;;8.71;100.00;99045.47;5078564;28;20217;-83
2024/02/05 08:47:35;;;;;;;2.53;0.90;;;;;;;8.73;100.00;99043.59;5076909;28;20236;-82
2024/02/05 08:50:01;;;;;;;0.77;0.50;;;;;;;8.77;100.00;99045.19;5077953;28;20705;-81
2024/02/05 08:52:28;;;;;;;1.10;0.60;;;;;;;8.81;100.00;99049.38;5079397;28;20233;-82
2024/02/05 08:54:56;;;;;;;0.73;0.60;;;;;;;8.82;100.00;99038.75;5078175;28;20291;-82
2024/02/05 08:57:22;;;;;;;1.73;0.70;;;;;;;8.89;100.00;99041.97;5077728;28;20206;-81
2024/02/05 08:59:50;;;;;;;1.30;0.80;;;;;;;8.92;100.00;99040.03;5078286;28;20648;-83
2024/02/05 09:02:18;;;;;;;1.10;0.70;;;;;;;9.00;100.00;99042.31;5076048;28;20226;-83
2024/02/05 09:04:45;;;;;;;1.97;0.57;;;;;;;9.12;99.82;99031.16;5075266;28;20212;-81
2024/02/05 09:07:11;;;;;;;2.60;0.53;;;;;;;9.26;98.87;99021.63;5074429;28;20689;-82
2024/02/05 09:09:38;;;;;;;1.50;0.53;;;;;;;9.46;98.40;99025.88;5074744;28;20237;-83
2024/02/05 09:12:07;;;;;;;0.90;0.60;;;;;;;9.58;94.77;99001.50;5074775;28;20226;-83
2024/02/05 09:14:34;;;;;;;1.33;0.70;;;;;;;9.67;93.53;99003.69;5074948;28;20207;-81
2024/02/05 09:17:01;;;;;;;0.77;0.50;;;;;;;9.67;93.37;99001.06;5075892;28;20223;-80
2024/02/05 09:19:27;;;;;;;0.70;0.50;;;;;;;9.65;93.43;99005.53;5077377;28;20212;-79
2024/02/05 09:21:54;;;;;;;0.57;0.53;;;;;;;9.60;93.07;99004.94;5078019;28;20721;-79
2024/02/05 09:24:23;;;;;;;2.37;0.73;;;;;;;9.59;93.79;99006.72;5074316;28;20211;-79
2024/02/05 09:26:49;;;;;;;0.70;0.50;;;;;;;9.60;92.80;99003.16;5073538;28;20219;-80
2024/02/05 09:29:17;;;;;;;1.70;0.63;;;;;;;9.57;93.03;99013.00;5073850;28;20243;-79
2024/02/05 09:31:43;;;;;;;1.93;0.50;;;;;;;9.57;92.59;99008.59;5074452;28;20238;-79
2024/02/05 09:34:10;;;;;;;2.63;0.73;;;;;;;9.50;91.61;99001.06;5074376;28;20706;-78
2024/02/05 09:36:36;;;;;;;0.60;0.53;;;;;;;9.52;91.98;98999.19;5074437;28;20296;-78
2024/02/05 09:39:04;;;;;;;1.03;0.70;;;;;;;9.59;91.17;98993.53;5072977;28;20210;-79
2024/02/05 09:41:34;;;;;;;1.40;0.90;;;;;;;9.73;90.74;99003.38;5074010;28;20279;-81
2024/02/05 09:44:03;;;;;;;1.83;0.80;;;;;;;9.81;90.66;99002.03;5077168;28;20257;-80
2024/02/05 09:46:33;;;;;;;2.00;1.03;;;;;;;9.84;89.57;99001.88;5079977;28;20204;-81
2024/02/05 09:49:00;;;;;;;2.97;0.70;;;;;;;9.87;88.97;98996.44;5077300;28;20202;-82
2024/02/05 09:51:29;;;;;;;2.40;1.13;;;;;;;10.00;89.33;99001.91;5078385;28;20231;-79
2024/02/05 09:53:57;;;;;;;1.20;0.70;;;;;;;10.19;88.93;98994.75;5077565;28;20286;-81
2024/02/05 09:56:25;;;;;;;2.93;0.90;;;;;;;10.27;88.73;98996.03;5080671;28;20296;-81
2024/02/05 09:58:52;;;;;;;2.40;1.00;;;;;;;10.30;87.51;98984.44;5080960;28;20213;-81
2024/02/05 10:01:20;;;;;;;1.77;1.17;;;;;;;10.39;86.52;98989.25;5080109;28;20236;-82
2024/02/05 10:03:49;;;;;;;0.63;0.50;;;;;;;10.39;87.15;98991.88;5081896;28;20204;-82
2024/02/05 10:06:18;;;;;;;3.13;0.77;;;;;;;10.40;87.38;98996.22;5081477;28;20231;-81
2024/02/05 10:08:50;;;;;;;2.47;0.80;;;;;;;10.41;88.35;99005.84;5081617;28;20216;-81
2024/02/05 10:11:19;;;;;;;2.60;0.90;;;;;;;10.46;88.05;98995.91;5081293;28;20234;-82
2024/02/05 10:13:45;;;;;;;3.73;1.10;;;;;;;10.50;88.02;99005.34;5081739;28;20596;-80
2024/02/05 10:16:13;;;;;;;1.00;0.67;;;;;;;10.63;86.06;98993.16;5082042;28;20581;-80
2024/02/05 10:18:40;;;;;;;0.77;0.60;;;;;;;10.63;85.68;98985.22;5080497;28;20219;-81
2024/02/05 10:21:08;;;;;;;3.10;1.17;;;;;;;10.60;85.26;98974.81;5082527;28;20207;-81
2024/02/05 10:23:35;;;;;;;2.30;0.90;;;;;;;10.62;85.35;98980.88;5084532;28;20643;-80
2024/02/05 10:26:03;;;;;;;4.90;1.20;;;;;;;10.54;83.27;98972.53;5082884;28;20226;-81
2024/02/05 10:28:29;;;;;;;1.67;0.83;;;;;;;10.48;83.09;98957.00;5082575;28;20211;-81
2024/02/05 10:31:04;;;;;;;2.70;1.00;;;;;;;10.36;84.20;98974.41;5081435;28;20280;-80
2024/02/05 10:33:31;;;;;;;4.20;1.17;;;;;;;10.39;83.92;98970.75;5081199;28;20223;-81
2024/02/05 10:35:58;;;;;;;2.00;0.80;;;;;;;10.41;85.04;98982.91;5084238;28;20206;-81
2024/02/05 10:38:26;;;;;;;2.03;1.00;;;;;;;10.39;84.79;98965.47;5083082;28;20211;-82
2024/02/05 10:40:53;;;;;;;2.20;1.00;;;;;;;10.41;85.13;98960.94;5081498;28;20226;-83
2024/02/05 10:43:20;;;;;;;2.93;1.00;;;;;;;10.51;83.30;98946.28;5080652;28;20221;-81
2024/02/05 10:45:46;;;;;;;3.10;0.90;;;;;;;10.59;83.67;98949.34;5081267;28;20328;-80
2024/02/05 10:48:13;;;;;;;2.97;1.10;;;;;;;10.69;84.33;98943.44;5080455;28;20216;-82
2024/02/05 10:50:40;;;;;;;2.13;1.20;;;;;;;10.74;83.79;98937.88;5081392;28;20698;-82
2024/02/05 10:53:08;;;;;;;2.07;0.90;;;;;;;10.81;83.60;98931.28;5082536;28;20232;-81
2024/02/05 10:55:39;;;;;;;3.63;1.20;;;;;;;10.84;83.84;98928.50;5082030;28;20234;-82
2024/02/05 10:58:06;;;;;;;3.27;1.00;;;;;;;10.85;83.89;98923.13;5082499;28;20208;-82
2024/02/05 11:00:38;;;;;;;1.83;0.90;;;;;;;10.90;84.63;98934.25;5083977;28;20215;-82
2024/02/05 11:03:07;;;;;;;1.47;0.87;;;;;;;10.90;83.50;98928.13;5084552;28;20234;-81
2024/02/05 11:05:35;;;;;;;1.97;0.87;;;;;;;10.88;82.79;98919.44;5086603;28;20230;-80
2024/02/05 11:08:06;;;;;;;2.53;1.00;;;;;;;10.87;83.51;98920.38;5086149;28;20209;-80
2024/02/05 11:10:35;;;;;;;3.27;1.10;;;;;;;10.87;82.23;98904.50;5085565;28;20226;-81
2024/02/05 11:13:05;;;;;;;3.40;1.00;;;;;;;10.85;82.41;98898.44;5084818;28;20241;-81
2024/02/05 11:15:35;;;;;;;3.23;1.20;;;;;;;10.90;81.08;98880.53;5086011;28;20207;-80
2024/02/05 11:18:08;;;;;;;2.43;1.03;;;;;;;10.96;81.67;98891.59;5084640;28;20229;-82
2024/02/05 11:20:35;;;;;;;3.50;0.97;;;;;;;10.96;82.07;98891.59;5084894;28;20204;-82
2024/02/05 11:23:03;;;;;;;1.77;1.10;;;;;;;11.09;81.05;98873.22;5083938;28;20319;-82
2024/02/05 11:25:31;;;;;;;3.53;0.90;;;;;;;11.16;83.88;98887.78;5085396;28;20215;-82
2024/02/05 11:27:57;;;;;;;2.33;1.05;;;;;;;11.20;82.65;98884.00;5082528;28;20434;-79
2024/02/05 11:30:29;;;;;;;5.97;1.30;;;;;;;11.26;81.04;98858.00;5079174;28;20228;-85
2024/02/05 11:32:55;;;;;;;2.47;1.23;;;;;;;11.28;81.74;98865.88;5079797;28;20234;-83
2024/02/05 11:35:28;;;;;;;4.60;1.20;;;;;;;11.36;81.57;98863.59;5077852;28;20219;-81